Time;durP1;ratioP1;P1;durP2;ratioP2;P2;SDS_P1;SDS_P2;PMS_P1;PMS_P2;Temp;Humidity;BMP_temperature;BMP_pressure;BME280_temperature;BME280_humidity;BME280_pressure;Samples;Min_cycle;Max_cycle;Signal;HPM_P1;HPM_P2
2022/05/30 00:00:39;;;;;;;59.47;3.38;;;;;;;;;;5078424;28;20227;-81
2022/05/30 00:03:08;;;;;;;60.22;4.40;;;;;;;;;;5078167;28;20253;-81
2022/05/30 00:05:36;;;;;;;59.88;3.85;;;;;;;;;;5078315;28;20213;-81
2022/05/30 00:08:03;;;;;;;59.70;3.60;;;;;;;;;;5077750;28;20197;-81
2022/05/30 00:10:31;;;;;;;59.40;3.40;;;;;;;;;;5077476;28;20668;-81
2022/05/30 00:12:58;;;;;;;59.60;3.70;;;;;;;;;;5078634;28;20732;-81
2022/05/30 00:15:26;;;;;;;60.10;3.58;;;;;;;;;;5078275;28;20202;-81
2022/05/30 00:17:56;;;;;;;60.10;3.55;;;;;;;;;;5077424;28;20623;-81
2022/05/30 00:20:25;;;;;;;60.00;3.80;;;;;;;;;;5078585;28;20238;-80
2022/05/30 00:22:53;;;;;;;60.17;3.40;;;;;;;;;;5077555;28;20223;-81
2022/05/30 00:25:20;;;;;;;60.00;4.03;;;;;;;;;;5077930;28;20182;-80
2022/05/30 00:27:48;;;;;;;59.58;3.40;;;;;;;;;;5077579;28;20203;-81
2022/05/30 00:30:16;;;;;;;59.75;3.50;;;;;;;;;;5077088;28;20225;-81
2022/05/30 00:32:43;;;;;;;59.63;3.70;;;;;;;;;;5078465;28;20217;-80
2022/05/30 00:35:11;;;;;;;59.67;3.55;;;;;;;;;;5077394;28;20206;-81
2022/05/30 00:37:39;;;;;;;60.17;3.75;;;;;;;;;;5076952;28;20214;-81
2022/05/30 00:40:07;;;;;;;60.17;4.00;;;;;;;;;;5077520;28;20233;-81
2022/05/30 00:42:35;;;;;;;59.90;3.80;;;;;;;;;;5077414;28;20229;-81
2022/05/30 00:45:02;;;;;;;60.00;3.70;;;;;;;;;;5077778;28;20606;-81
2022/05/30 00:47:29;;;;;;;59.85;3.80;;;;;;;;;;5076667;28;20193;-81
2022/05/30 00:49:57;;;;;;;61.47;4.40;;;;;;;;;;5077301;28;20228;-81
2022/05/30 00:52:28;;;;;;;60.35;3.85;;;;;;;;;;5077313;28;20296;-80
2022/05/30 00:55:00;;;;;;;59.60;3.50;;;;;;;;;;5077782;28;20666;-81
2022/05/30 00:57:29;;;;;;;59.90;3.60;;;;;;;;;;5081239;28;20201;-81
2022/05/30 00:59:57;;;;;;;59.67;3.60;;;;;;;;;;5079448;28;20222;-80
2022/05/30 01:02:26;;;;;;;59.80;3.40;;;;;;;;;;5079145;28;20220;-80
2022/05/30 01:07:40;;;;;;;59.63;3.60;;;;;;;;;;5078669;28;20208;-81
2022/05/30 01:10:10;;;;;;;60.95;4.35;;;;;;;;;;5079301;28;20244;-80
2022/05/30 01:12:39;;;;;;;59.80;3.63;;;;;;;;;;5078715;28;20208;-81
2022/05/30 01:15:08;;;;;;;60.38;4.20;;;;;;;;;;5078684;28;20209;-82
2022/05/30 01:17:37;;;;;;;60.13;3.85;;;;;;;;;;5077898;28;20263;-81
2022/05/30 01:20:06;;;;;;;60.17;3.83;;;;;;;;;;5078649;28;20315;-81
2022/05/30 01:22:42;;;;;;;60.85;4.18;;;;;;;;;;5080537;28;20230;-80
2022/05/30 01:25:17;;;;;;;59.35;3.42;;;;;;;;;;5083403;28;20728;-80
2022/05/30 01:27:50;;;;;;;59.63;3.45;;;;;;;;;;5096979;28;20195;-80
2022/05/30 01:30:19;;;;;;;59.88;3.67;;;;;;;;;;5097911;28;20205;-81
2022/05/30 01:32:46;;;;;;;59.50;3.58;;;;;;;;;;5098672;28;20216;-81
2022/05/30 01:35:14;;;;;;;59.42;3.40;;;;;;;;;;5098291;28;20205;-80
2022/05/30 01:37:41;;;;;;;59.80;3.80;;;;;;;;;;5082343;28;20201;-81
2022/05/30 01:40:09;;;;;;;60.70;4.20;;;;;;;;;;5076524;28;20217;-80
2022/05/30 01:42:36;;;;;;;60.90;4.28;;;;;;;;;;5076542;28;20281;-81
2022/05/30 01:45:03;;;;;;;60.17;3.80;;;;;;;;;;5076292;28;20196;-81
2022/05/30 01:47:32;;;;;;;59.90;3.55;;;;;;;;;;5076586;28;20202;-81
2022/05/30 01:50:00;;;;;;;59.50;3.70;;;;;;;;;;5076945;28;20767;-81
2022/05/30 01:52:28;;;;;;;60.30;3.90;;;;;;;;;;5075958;28;20209;-81
2022/05/30 01:54:55;;;;;;;60.33;3.58;;;;;;;;;;5076801;28;20200;-80
2022/05/30 01:57:23;;;;;;;60.38;4.05;;;;;;;;;;5076862;28;20259;-81
2022/05/30 01:59:50;;;;;;;59.70;3.88;;;;;;;;;;5076797;28;20263;-81
2022/05/30 02:02:17;;;;;;;62.05;3.97;;;;;;;;;;5077061;28;20271;-81
2022/05/30 02:04:46;;;;;;;59.80;3.95;;;;;;;;;;5076928;28;20205;-81
2022/05/30 02:07:13;;;;;;;59.75;3.45;;;;;;;;;;5076996;28;20603;-80
2022/05/30 02:09:40;;;;;;;60.10;4.00;;;;;;;;;;5077254;28;20275;-80
2022/05/30 02:12:08;;;;;;;60.10;3.72;;;;;;;;;;5077305;28;20616;-81
2022/05/30 02:14:36;;;;;;;59.78;3.80;;;;;;;;;;5077889;28;20209;-81
2022/05/30 02:17:04;;;;;;;59.90;3.85;;;;;;;;;;5077716;28;20194;-81
2022/05/30 02:19:32;;;;;;;59.80;3.70;;;;;;;;;;5076997;28;20217;-81
2022/05/30 02:22:01;;;;;;;61.00;4.13;;;;;;;;;;5077885;28;20627;-81
2022/05/30 02:24:29;;;;;;;61.25;4.82;;;;;;;;;;5077781;28;20287;-81
2022/05/30 02:26:56;;;;;;;60.05;4.53;;;;;;;;;;5077903;28;20216;-80
2022/05/30 02:29:24;;;;;;;59.38;3.35;;;;;;;;;;5078192;28;20213;-80
2022/05/30 02:31:51;;;;;;;61.00;4.30;;;;;;;;;;5077278;28;20217;-78
2022/05/30 02:37:04;;;;;;;60.40;4.30;;;;;;;;;;5074846;28;20207;-79
2022/05/30 02:39:32;;;;;;;63.00;5.32;;;;;;;;;;5074928;28;20715;-79
2022/05/30 02:41:59;;;;;;;60.42;3.67;;;;;;;;;;5075221;28;20209;-80
2022/05/30 02:44:27;;;;;;;60.47;4.15;;;;;;;;;;5075221;28;20203;-80
2022/05/30 02:46:55;;;;;;;62.13;4.07;;;;;;;;;;5075257;28;20201;-79
2022/05/30 02:49:23;;;;;;;60.67;3.80;;;;;;;;;;5075133;28;20291;-79
2022/05/30 02:51:50;;;;;;;60.10;3.53;;;;;;;;;;5075830;28;20196;-79
2022/05/30 02:54:19;;;;;;;60.40;4.13;;;;;;;;;;5075496;28;20583;-79
2022/05/30 02:56:49;;;;;;;60.22;4.07;;;;;;;;;;5075857;28;20209;-79
2022/05/30 02:59:16;;;;;;;60.15;4.10;;;;;;;;;;5075533;28;20311;-79
2022/05/30 03:01:44;;;;;;;59.47;3.58;;;;;;;;;;5075803;28;20201;-79
2022/05/30 03:04:11;;;;;;;59.50;3.80;;;;;;;;;;5076187;28;20225;-79
2022/05/30 03:06:38;;;;;;;60.80;3.70;;;;;;;;;;5076112;28;20243;-79
2022/05/30 03:09:06;;;;;;;60.50;4.00;;;;;;;;;;5075984;28;20302;-80
2022/05/30 03:11:35;;;;;;;59.42;4.10;;;;;;;;;;5076827;28;20737;-80
2022/05/30 03:14:03;;;;;;;59.70;4.05;;;;;;;;;;5076477;28;20208;-80
2022/05/30 03:16:30;;;;;;;60.25;4.32;;;;;;;;;;5076574;28;20197;-80
2022/05/30 03:18:57;;;;;;;60.83;4.10;;;;;;;;;;5076373;28;20255;-80
2022/05/30 03:21:24;;;;;;;59.40;3.80;;;;;;;;;;5076721;28;20258;-79
2022/05/30 03:23:53;;;;;;;59.92;3.63;;;;;;;;;;5076372;28;20286;-80
2022/05/30 03:26:20;;;;;;;59.92;3.83;;;;;;;;;;5077020;28;20731;-79
2022/05/30 03:28:49;;;;;;;60.25;4.32;;;;;;;;;;5076065;28;20209;-80
2022/05/30 03:31:16;;;;;;;60.47;4.28;;;;;;;;;;5076729;28;20665;-79
2022/05/30 03:33:43;;;;;;;60.78;4.45;;;;;;;;;;5076559;28;20216;-80
2022/05/30 03:36:15;;;;;;;60.05;4.40;;;;;;;;;;5076952;28;20599;-80
2022/05/30 03:38:43;;;;;;;60.45;4.35;;;;;;;;;;5076590;28;20189;-79
2022/05/30 03:41:10;;;;;;;60.60;4.43;;;;;;;;;;5076901;28;20735;-80
2022/05/30 03:43:37;;;;;;;60.33;4.47;;;;;;;;;;5076631;28;20746;-80
2022/05/30 03:46:06;;;;;;;63.85;4.60;;;;;;;;;;5076135;28;20590;-80
2022/05/30 03:48:34;;;;;;;60.47;4.72;;;;;;;;;;5077154;28;20625;-79
2022/05/30 03:51:01;;;;;;;60.60;4.38;;;;;;;;;;5076735;28;20224;-80
2022/05/30 03:53:28;;;;;;;61.60;5.70;;;;;;;;;;5076631;28;20205;-80
2022/05/30 03:55:58;;;;;;;59.70;3.80;;;;;;;;;;5077407;28;20194;-80
2022/05/30 03:58:26;;;;;;;60.63;3.80;;;;;;;;;;5077613;28;20181;-80
2022/05/30 04:00:53;;;;;;;60.75;3.78;;;;;;;;;;5078073;28;20275;-79
2022/05/30 04:03:22;;;;;;;60.08;3.63;;;;;;;;;;5077781;28;20628;-80
2022/05/30 04:05:49;;;;;;;61.63;4.40;;;;;;;;;;5078044;28;20197;-79
2022/05/30 04:08:17;;;;;;;59.78;3.72;;;;;;;;;;5077250;28;20200;-80
2022/05/30 04:10:44;;;;;;;61.63;4.32;;;;;;;;;;5077529;28;20223;-80
2022/05/30 04:13:14;;;;;;;60.63;4.47;;;;;;;;;;5077900;28;20197;-80
2022/05/30 04:15:41;;;;;;;59.90;4.18;;;;;;;;;;5077844;28;20189;-80
2022/05/30 04:18:09;;;;;;;61.00;4.40;;;;;;;;;;5077903;28;20619;-80
2022/05/30 04:20:37;;;;;;;59.47;3.60;;;;;;;;;;5077642;28;20217;-80
2022/05/30 04:23:05;;;;;;;60.00;4.53;;;;;;;;;;5077766;28;20577;-80
2022/05/30 04:25:32;;;;;;;61.80;4.20;;;;;;;;;;5077998;28;20724;-79
2022/05/30 04:28:00;;;;;;;60.80;4.25;;;;;;;;;;5078045;28;20220;-79
2022/05/30 04:30:27;;;;;;;59.80;3.90;;;;;;;;;;5078082;28;20298;-80
2022/05/30 04:32:54;;;;;;;60.58;3.97;;;;;;;;;;5078112;28;20247;-80
2022/05/30 04:35:23;;;;;;;61.63;4.25;;;;;;;;;;5077727;28;20201;-81
2022/05/30 04:37:52;;;;;;;60.28;3.50;;;;;;;;;;5077466;28;20276;-80
2022/05/30 04:40:19;;;;;;;62.33;3.67;;;;;;;;;;5077597;28;20278;-80
2022/05/30 04:42:47;;;;;;;60.72;3.85;;;;;;;;;;5078000;28;20209;-80
2022/05/30 04:45:16;;;;;;;59.97;4.00;;;;;;;;;;5059934;28;20228;-80
2022/05/30 04:47:43;;;;;;;62.13;4.88;;;;;;;;;;5077097;28;20197;-80
2022/05/30 04:50:14;;;;;;;62.53;4.10;;;;;;;;;;5078102;28;20218;-80
2022/05/30 04:52:41;;;;;;;60.03;4.05;;;;;;;;;;5078317;28;20205;-81
2022/05/30 04:55:10;;;;;;;59.30;3.45;;;;;;;;;;5077904;28;20208;-80
2022/05/30 04:57:41;;;;;;;59.65;3.53;;;;;;;;;;5077512;28;20197;-81
2022/05/30 05:00:09;;;;;;;59.13;3.20;;;;;;;;;;5078266;28;20311;-80
2022/05/30 05:02:36;;;;;;;61.10;4.07;;;;;;;;;;5077324;28;20201;-80
2022/05/30 05:05:04;;;;;;;60.17;4.00;;;;;;;;;;5077869;28;20254;-81
2022/05/30 05:07:36;;;;;;;59.80;3.67;;;;;;;;;;5078367;28;20196;-81
2022/05/30 05:10:04;;;;;;;60.17;4.18;;;;;;;;;;5077905;28;20268;-80
2022/05/30 05:12:33;;;;;;;63.10;4.68;;;;;;;;;;5078122;28;20228;-80
2022/05/30 05:15:00;;;;;;;60.20;3.92;;;;;;;;;;5077941;28;20201;-80
2022/05/30 05:17:27;;;;;;;60.88;5.07;;;;;;;;;;5076302;28;20211;-80
2022/05/30 05:19:54;;;;;;;60.08;3.97;;;;;;;;;;5077366;28;20283;-80
2022/05/30 05:22:22;;;;;;;59.60;4.05;;;;;;;;;;5077449;28;20201;-80
2022/05/30 05:24:49;;;;;;;58.97;3.60;;;;;;;;;;5077106;28;20225;-80
2022/05/30 05:27:16;;;;;;;62.30;4.15;;;;;;;;;;5077474;28;20193;-80
2022/05/30 05:29:45;;;;;;;60.40;4.22;;;;;;;;;;5077104;28;20217;-80
2022/05/30 05:32:13;;;;;;;60.50;3.83;;;;;;;;;;5077656;28;20205;-80
2022/05/30 05:34:40;;;;;;;61.72;4.00;;;;;;;;;;5077813;28;20456;-79
2022/05/30 05:37:07;;;;;;;60.15;3.85;;;;;;;;;;5077333;28;20209;-80
2022/05/30 05:39:35;;;;;;;60.22;3.70;;;;;;;;;;5076572;28;20243;-79
2022/05/30 05:42:02;;;;;;;60.72;4.10;;;;;;;;;;5076583;28;20201;-80
2022/05/30 05:44:30;;;;;;;60.10;4.22;;;;;;;;;;5077105;28;20639;-79
2022/05/30 05:46:59;;;;;;;60.67;4.70;;;;;;;;;;5076676;28;20208;-80
2022/05/30 05:49:26;;;;;;;60.05;3.88;;;;;;;;;;5077767;28;20712;-80
2022/05/30 05:51:54;;;;;;;62.30;4.00;;;;;;;;;;5079414;28;20228;-80
2022/05/30 05:54:23;;;;;;;60.67;5.18;;;;;;;;;;5079094;28;20205;-80
2022/05/30 05:56:50;;;;;;;59.95;4.07;;;;;;;;;;5078207;28;20217;-80
2022/05/30 05:59:18;;;;;;;59.63;3.72;;;;;;;;;;5078456;28;20221;-80
2022/05/30 06:01:45;;;;;;;59.92;4.00;;;;;;;;;;5078706;28;20228;-80
2022/05/30 06:04:14;;;;;;;60.03;3.70;;;;;;;;;;5078323;28;20251;-79
2022/05/30 06:06:41;;;;;;;61.17;4.45;;;;;;;;;;5077708;28;20209;-80
2022/05/30 06:09:08;;;;;;;60.25;4.53;;;;;;;;;;5079645;28;20221;-80
2022/05/30 06:11:35;;;;;;;60.67;4.40;;;;;;;;;;5081556;28;20198;-80
2022/05/30 06:14:03;;;;;;;60.30;4.32;;;;;;;;;;5081232;28;20200;-80
2022/05/30 06:16:31;;;;;;;59.55;3.97;;;;;;;;;;5081205;28;20262;-80
2022/05/30 06:18:59;;;;;;;60.38;4.10;;;;;;;;;;5081079;28;20197;-80
2022/05/30 06:21:29;;;;;;;59.80;4.05;;;;;;;;;;5082269;28;20201;-80
2022/05/30 06:23:57;;;;;;;60.90;4.78;;;;;;;;;;5081314;28;20762;-80
2022/05/30 06:26:25;;;;;;;59.97;4.25;;;;;;;;;;5081312;28;20201;-80
2022/05/30 06:28:54;;;;;;;60.50;4.70;;;;;;;;;;5081280;28;20249;-80
2022/05/30 06:31:22;;;;;;;62.33;4.30;;;;;;;;;;5081103;28;20206;-80
2022/05/30 06:33:50;;;;;;;60.27;4.07;;;;;;;;;;5081024;28;20543;-80
2022/05/30 06:36:19;;;;;;;59.58;3.90;;;;;;;;;;5081188;28;20875;-81
2022/05/30 06:38:48;;;;;;;59.78;4.10;;;;;;;;;;5080380;28;20218;-83
2022/05/30 06:41:17;;;;;;;59.80;4.10;;;;;;;;;;5080946;28;20215;-80
2022/05/30 06:43:45;;;;;;;59.20;4.17;;;;;;;;;;5080036;28;20481;-81
2022/05/30 06:46:12;;;;;;;61.00;4.70;;;;;;;;;;5080382;28;20833;-80
2022/05/30 06:48:40;;;;;;;60.27;4.77;;;;;;;;;;5080957;28;20499;-79
2022/05/30 06:51:08;;;;;;;60.93;4.63;;;;;;;;;;5077468;28;20483;-79
2022/05/30 06:53:36;;;;;;;62.17;4.00;;;;;;;;;;5078773;28;20425;-79
2022/05/30 06:56:12;;;;;;;59.70;3.70;;;;;;;;;;5078380;28;20491;-79
2022/05/30 06:58:38;;;;;;;61.20;4.30;;;;;;;;;;5092762;28;20465;-80
2022/05/30 07:01:05;;;;;;;60.60;4.73;;;;;;;;;;5089938;28;20458;-79
2022/05/30 07:03:32;;;;;;;60.17;4.50;;;;;;;;;;5091935;28;20969;-78
2022/05/30 07:06:01;;;;;;;59.40;3.70;;;;;;;;;;5091254;28;20442;-79
2022/05/30 07:08:29;;;;;;;60.40;4.83;;;;;;;;;;5082181;28;20447;-79
2022/05/30 07:10:56;;;;;;;60.37;3.83;;;;;;;;;;5074382;28;20505;-79
2022/05/30 07:13:25;;;;;;;60.07;4.20;;;;;;;;;;5075258;28;20476;-80
2022/05/30 07:15:53;;;;;;;60.70;4.60;;;;;;;;;;5075912;28;20442;-79
2022/05/30 07:18:20;;;;;;;61.93;5.10;;;;;;;;;;5075532;28;20923;-79
2022/05/30 07:20:48;;;;;;;59.60;3.80;;;;;;;;;;5074520;28;20491;-79
2022/05/30 07:23:15;;;;;;;60.77;4.37;;;;;;;;;;5075886;28;20521;-78
2022/05/30 07:25:42;;;;;;;59.70;3.90;;;;;;;;;;5074393;28;20482;-79
2022/05/30 07:28:12;;;;;;;60.33;3.87;;;;;;;;;;5074743;28;20439;-80
2022/05/30 07:30:41;;;;;;;59.60;3.90;;;;;;;;;;5075473;28;20463;-79
2022/05/30 07:33:09;;;;;;;60.50;4.20;;;;;;;;;;5075020;28;20981;-79
2022/05/30 07:35:37;;;;;;;59.63;3.60;;;;;;;;;;5075399;28;20443;-80
2022/05/30 07:38:04;;;;;;;59.57;4.87;;;;;;;;;;5075511;28;20457;-80
2022/05/30 07:40:31;;;;;;;61.37;3.87;;;;;;;;;;5075413;28;20894;-80
2022/05/30 07:42:59;;;;;;;60.00;3.73;;;;;;;;;;5075674;28;20530;-80
2022/05/30 07:45:26;;;;;;;60.50;3.60;;;;;;;;;;5075104;28;20916;-79
2022/05/30 07:47:55;;;;;;;59.60;3.90;;;;;;;;;;5076114;28;20514;-80
2022/05/30 07:50:22;;;;;;;61.40;4.03;;;;;;;;;;5075374;28;20501;-79
2022/05/30 07:52:50;;;;;;;59.87;3.73;;;;;;;;;;5073138;28;20478;-79
2022/05/30 07:55:17;;;;;;;63.00;3.70;;;;;;;;;;5073399;28;20785;-80
2022/05/30 07:57:54;;;;;;;59.97;3.97;;;;;;;;;;5073001;28;20436;-79
2022/05/30 08:00:22;;;;;;;61.77;3.63;;;;;;;;;;5073659;28;20460;-80
2022/05/30 08:02:49;;;;;;;59.50;3.73;;;;;;;;;;5073243;28;20489;-80
2022/05/30 08:05:18;;;;;;;59.57;3.67;;;;;;;;;;5073595;28;20904;-79
2022/05/30 08:07:46;;;;;;;60.80;3.97;;;;;;;;;;5073483;28;20431;-79
2022/05/30 08:10:14;;;;;;;59.43;3.53;;;;;;;;;;5073269;28;20831;-79
2022/05/30 08:12:41;;;;;;;59.30;3.40;;;;;;;;;;5073697;28;20458;-78
2022/05/30 08:15:09;;;;;;;59.40;3.07;;;;;;;;;;5074312;28;20797;-80
2022/05/30 08:17:36;;;;;;;59.73;3.80;;;;;;;;;;5074556;28;20435;-79
2022/05/30 08:20:04;;;;;;;58.90;3.40;;;;;;;;;;5074383;28;20606;-79
2022/05/30 08:22:34;;;;;;;59.40;3.23;;;;;;;;;;5073704;28;20474;-79
2022/05/30 08:25:03;;;;;;;60.07;4.53;;;;;;;;;;5074525;28;20485;-79
2022/05/30 08:27:30;;;;;;;59.70;3.07;;;;;;;;;;5073723;28;20451;-80
2022/05/30 08:29:58;;;;;;;59.40;3.70;;;;;;;;;;5074441;28;20466;-80
2022/05/30 08:32:25;;;;;;;59.50;3.80;;;;;;;;;;5075075;28;20436;-80
2022/05/30 08:34:53;;;;;;;60.90;3.90;;;;;;;;;;5074984;28;20514;-81
2022/05/30 08:37:20;;;;;;;59.50;4.10;;;;;;;;;;5074989;28;20544;-81
2022/05/30 08:42:34;;;;;;;59.60;4.07;;;;;;;;;;5075520;28;20438;-80
2022/05/30 08:45:03;;;;;;;61.10;3.70;;;;;;;;;;5075463;28;20881;-81
2022/05/30 08:47:39;;;;;;;59.50;3.40;;;;;;;;;;5075630;28;20455;-81
2022/05/30 08:50:12;;;;;;;59.57;3.50;;;;;;;;;;5075257;28;20490;-81
2022/05/30 08:52:44;;;;;;;60.30;3.60;;;;;;;;;;5075454;28;20436;-80
2022/05/30 08:55:21;;;;;;;59.40;3.40;;;;;;;;;;5075230;28;20446;-80
2022/05/30 08:57:53;;;;;;;59.27;3.30;;;;;;;;;;5075926;28;20486;-81
2022/05/30 09:00:23;;;;;;;59.97;3.37;;;;;;;;;;5075648;28;20875;-81
2022/05/30 09:02:53;;;;;;;59.40;3.10;;;;;;;;;;5076402;28;20415;-82
2022/05/30 09:05:24;;;;;;;59.53;3.27;;;;;;;;;;5077237;28;20475;-81
2022/05/30 09:07:54;;;;;;;59.07;3.20;;;;;;;;;;5076121;28;20419;-81
2022/05/30 09:10:25;;;;;;;59.27;3.57;;;;;;;;;;5076918;28;20475;-79
2022/05/30 09:12:55;;;;;;;59.97;3.80;;;;;;;;;;5076171;28;20437;-80
2022/05/30 09:15:24;;;;;;;60.13;3.80;;;;;;;;;;5076777;28;20547;-80
2022/05/30 09:17:54;;;;;;;59.67;4.10;;;;;;;;;;5076586;28;20437;-80
2022/05/30 09:20:22;;;;;;;59.17;3.17;;;;;;;;;;5076773;28;20879;-81
2022/05/30 09:22:50;;;;;;;65.60;4.00;;;;;;;;;;5076614;28;20441;-81
2022/05/30 09:28:06;;;;;;;58.23;2.53;;;;;;;;;;5077279;28;20509;-81
2022/05/30 09:30:37;;;;;;;58.67;3.27;;;;;;;;;;5077016;28;20458;-81
2022/05/30 09:33:07;;;;;;;58.63;3.17;;;;;;;;;;5076924;28;20934;-80
2022/05/30 09:35:35;;;;;;;58.83;2.90;;;;;;;;;;5076652;28;20442;-81
2022/05/30 09:38:10;;;;;;;58.97;3.30;;;;;;;;;;5076684;28;20503;-80
2022/05/30 09:40:41;;;;;;;58.23;2.90;;;;;;;;;;5077200;28;20453;-80
2022/05/30 09:43:12;;;;;;;60.77;3.17;;;;;;;;;;5078438;28;20500;-80
2022/05/30 09:45:39;;;;;;;59.67;3.37;;;;;;;;;;5081596;28;20466;-80
2022/05/30 09:48:08;;;;;;;59.50;3.17;;;;;;;;;;5080548;28;20489;-81
2022/05/30 09:50:42;;;;;;;58.70;3.30;;;;;;;;;;5081340;28;20466;-80
2022/05/30 09:53:09;;;;;;;58.80;2.90;;;;;;;;;;5080508;28;20451;-80
2022/05/30 09:55:38;;;;;;;58.70;3.37;;;;;;;;;;5081421;28;20442;-80
2022/05/30 09:58:06;;;;;;;58.67;2.87;;;;;;;;;;5081517;28;20432;-81
2022/05/30 10:00:38;;;;;;;58.70;3.10;;;;;;;;;;5080742;28;20460;-80
2022/05/30 10:03:07;;;;;;;59.00;3.03;;;;;;;;;;5081029;28;20424;-80
2022/05/30 10:05:35;;;;;;;58.67;3.10;;;;;;;;;;5081192;28;20480;-81
2022/05/30 10:08:03;;;;;;;59.93;2.90;;;;;;;;;;5081807;28;20589;-80
2022/05/30 10:10:32;;;;;;;58.50;2.43;;;;;;;;;;5081665;28;20890;-81
2022/05/30 10:13:00;;;;;;;59.10;3.03;;;;;;;;;;5080994;28;20437;-81
2022/05/30 10:15:29;;;;;;;58.60;2.83;;;;;;;;;;5081112;28;20471;-81
2022/05/30 10:17:59;;;;;;;58.80;3.20;;;;;;;;;;5080897;28;20445;-80
2022/05/30 10:20:32;;;;;;;58.27;2.40;;;;;;;;;;5081844;28;20460;-80
2022/05/30 10:28:44;;;;;;;58.80;2.70;;;;;;;;;;5080442;28;20451;-80
2022/05/30 10:31:23;;;;;;;58.57;2.40;;;;;;;;;;5082134;28;20458;-81
2022/05/30 10:34:05;;;;;;;59.60;2.50;;;;;;;;;;5080647;28;20514;-81
2022/05/30 10:36:35;;;;;;;58.03;2.30;;;;;;;;;;5067722;28;20446;-80
2022/05/30 10:39:07;;;;;;;59.43;2.70;;;;;;;;;;5081520;28;20443;-80
2022/05/30 10:41:37;;;;;;;58.50;2.30;;;;;;;;;;5086043;28;20490;-80
2022/05/30 10:44:09;;;;;;;58.10;2.23;;;;;;;;;;5087174;28;20746;-81
2022/05/30 10:46:40;;;;;;;59.37;2.47;;;;;;;;;;5084902;28;20482;-81
2022/05/30 10:49:09;;;;;;;58.40;2.40;;;;;;;;;;5082020;28;20467;-82
2022/05/30 10:51:42;;;;;;;58.50;2.20;;;;;;;;;;5082204;28;21006;-81
2022/05/30 10:54:12;;;;;;;59.17;2.20;;;;;;;;;;5080890;28;20473;-79
2022/05/30 10:56:41;;;;;;;57.63;2.10;;;;;;;;;;5079904;28;20857;-80
2022/05/30 10:59:15;;;;;;;57.67;2.10;;;;;;;;;;5078953;28;20533;-79
2022/05/30 11:01:45;;;;;;;57.77;2.10;;;;;;;;;;5079024;28;20440;-80
2022/05/30 11:04:23;;;;;;;57.93;2.07;;;;;;;;;;5082101;28;20428;-80
2022/05/30 11:06:54;;;;;;;58.07;2.20;;;;;;;;;;5080615;28;20523;-80
2022/05/30 11:09:25;;;;;;;57.93;2.07;;;;;;;;;;5080540;28;20464;-80
2022/05/30 11:11:56;;;;;;;57.83;2.20;;;;;;;;;;5081614;28;20504;-79
2022/05/30 11:14:28;;;;;;;57.87;2.33;;;;;;;;;;5081134;28;20807;-80
2022/05/30 11:16:58;;;;;;;57.80;2.20;;;;;;;;;;5081370;28;20423;-80
2022/05/30 11:19:27;;;;;;;60.97;2.10;;;;;;;;;;5081153;28;20460;-81
2022/05/30 11:22:00;;;;;;;58.23;2.03;;;;;;;;;;5079929;28;20789;-80
2022/05/30 11:24:31;;;;;;;58.00;2.10;;;;;;;;;;5081410;28;20448;-82
2022/05/30 11:27:07;;;;;;;57.93;2.20;;;;;;;;;;5083323;28;20793;-82
2022/05/30 11:29:45;;;;;;;58.97;2.60;;;;;;;;;;5083442;28;20452;-81
2022/05/30 11:32:19;;;;;;;58.33;2.20;;;;;;;;;;5078689;28;20428;-79
2022/05/30 11:34:56;;;;;;;57.50;2.20;;;;;;;;;;5080504;28;20447;-80
2022/05/30 11:37:44;;;;;;;58.00;2.30;;;;;;;;;;5081468;28;20506;-81
2022/05/30 11:40:19;;;;;;;57.47;1.97;;;;;;;;;;5075735;28;20479;-80
2022/05/30 11:42:51;;;;;;;57.53;2.27;;;;;;;;;;5079904;28;20431;-81
2022/05/30 11:45:25;;;;;;;57.50;2.13;;;;;;;;;;5079323;28;20479;-80
2022/05/30 11:47:58;;;;;;;57.20;1.90;;;;;;;;;;5079145;28;20455;-82
2022/05/30 11:50:33;;;;;;;58.63;2.20;;;;;;;;;;5079890;28;20458;-81
2022/05/30 11:53:15;;;;;;;57.70;2.00;;;;;;;;;;5080298;28;20463;-82
2022/05/30 11:55:48;;;;;;;57.57;2.00;;;;;;;;;;5079145;28;20443;-81
2022/05/30 11:58:20;;;;;;;57.43;2.00;;;;;;;;;;5080349;28;20471;-80
2022/05/30 12:00:48;;;;;;;58.63;2.53;;;;;;;;;;5080569;28;20537;-81
2022/05/30 12:03:38;;;;;;;58.30;2.43;;;;;;;;;;5080310;28;20456;-80
2022/05/30 12:06:11;;;;;;;58.30;2.17;;;;;;;;;;5079498;28;20532;-80
2022/05/30 12:09:06;;;;;;;58.70;2.50;;;;;;;;;;5079402;28;20420;-80
2022/05/30 12:11:48;;;;;;;58.70;2.47;;;;;;;;;;5043479;28;20441;-80
2022/05/30 12:14:26;;;;;;;58.43;2.20;;;;;;;;;;5079867;28;20473;-80
2022/05/30 12:16:57;;;;;;;57.93;2.00;;;;;;;;;;5082554;28;20507;-80
2022/05/30 12:25:30;;;;;;;58.43;2.50;;;;;;;;;;5097114;28;20470;-79
2022/05/30 12:27:59;;;;;;;57.70;2.00;;;;;;;;;;5095423;28;20427;-80
2022/05/30 12:30:44;;;;;;;64.20;2.53;;;;;;;;;;5096310;28;20459;-80
2022/05/30 12:33:29;;;;;;;58.30;2.23;;;;;;;;;;5090268;28;20435;-81
2022/05/30 12:36:13;;;;;;;58.87;2.33;;;;;;;;;;5080140;28;20479;-81
2022/05/30 12:38:53;;;;;;;58.47;1.93;;;;;;;;;;5092490;28;20431;-81
2022/05/30 12:41:21;;;;;;;57.23;2.23;;;;;;;;;;5081691;28;20935;-79
2022/05/30 12:43:50;;;;;;;57.27;1.90;;;;;;;;;;5078772;28;20474;-81
2022/05/30 12:46:19;;;;;;;57.83;2.20;;;;;;;;;;5075774;28;20436;-80
2022/05/30 12:48:55;;;;;;;57.33;2.30;;;;;;;;;;5075868;28;20462;-80
2022/05/30 12:51:26;;;;;;;57.30;1.90;;;;;;;;;;5074667;28;20471;-80
2022/05/30 12:54:12;;;;;;;57.53;2.33;;;;;;;;;;5074469;28;20435;-80
2022/05/30 12:57:12;;;;;;;57.03;1.73;;;;;;;;;;5073801;28;20510;-80
2022/05/30 12:59:58;;;;;;;57.27;2.00;;;;;;;;;;5010657;28;20500;-81
2022/05/30 13:02:44;;;;;;;57.23;2.10;;;;;;;;;;5011232;28;20480;-80
2022/05/30 13:05:23;;;;;;;60.30;2.40;;;;;;;;;;5011573;28;20438;-81
2022/05/30 13:07:50;;;;;;;57.80;2.20;;;;;;;;;;5011260;28;20628;-81
2022/05/30 13:10:17;;;;;;;58.10;2.07;;;;;;;;;;5011485;28;20504;-81
2022/05/30 13:12:55;;;;;;;57.40;1.90;;;;;;;;;;5011884;28;20438;-81
2022/05/30 13:15:25;;;;;;;61.13;3.20;;;;;;;;;;5011515;28;20449;-81
2022/05/30 13:18:03;;;;;;;57.20;2.10;;;;;;;;;;5011498;28;20501;-80
2022/05/30 13:20:36;;;;;;;57.27;2.10;;;;;;;;;;5012383;28;20477;-80
2022/05/30 13:23:04;;;;;;;57.47;2.37;;;;;;;;;;5012799;28;20427;-81
2022/05/30 13:25:33;;;;;;;56.97;1.83;;;;;;;;;;5012737;28;20462;-82
2022/05/30 13:28:10;;;;;;;57.40;1.97;;;;;;;;;;5011974;28;20458;-82
2022/05/30 13:30:38;;;;;;;57.10;1.90;;;;;;;;;;5041303;28;20554;-82
2022/05/30 13:33:12;;;;;;;57.10;1.90;;;;;;;;;;5073323;28;20497;-82
2022/05/30 13:35:42;;;;;;;57.30;2.03;;;;;;;;;;5074040;28;20681;-83
2022/05/30 13:38:12;;;;;;;57.60;2.00;;;;;;;;;;5072618;28;20932;-82
2022/05/30 13:40:40;;;;;;;57.27;1.80;;;;;;;;;;5075249;28;20483;-82
2022/05/30 13:43:09;;;;;;;57.20;1.90;;;;;;;;;;5075195;28;20889;-83
2022/05/30 13:45:37;;;;;;;57.90;2.20;;;;;;;;;;5072931;28;20475;-83
2022/05/30 13:48:05;;;;;;;58.20;2.30;;;;;;;;;;5073033;28;20463;-83
2022/05/30 13:50:46;;;;;;;58.07;2.17;;;;;;;;;;5073020;28;20463;-84
2022/05/30 13:53:14;;;;;;;58.60;2.30;;;;;;;;;;5073959;28;20478;-83
2022/05/30 13:55:50;;;;;;;57.97;2.20;;;;;;;;;;5074663;28;20874;-83
2022/05/30 13:58:18;;;;;;;58.80;2.17;;;;;;;;;;5078998;28;20807;-83
2022/05/30 14:00:45;;;;;;;58.40;2.23;;;;;;;;;;5073883;28;20470;-83
2022/05/30 14:03:15;;;;;;;58.00;2.30;;;;;;;;;;5074793;28;20455;-83
2022/05/30 14:05:45;;;;;;;58.70;2.40;;;;;;;;;;5075584;28;20491;-82
2022/05/30 14:08:14;;;;;;;58.30;2.30;;;;;;;;;;5077534;28;20447;-82
2022/05/30 14:10:44;;;;;;;58.50;2.43;;;;;;;;;;5079132;28;20968;-82
2022/05/30 14:13:18;;;;;;;58.17;2.10;;;;;;;;;;5070905;28;20451;-83
2022/05/30 14:15:53;;;;;;;58.30;2.10;;;;;;;;;;5076633;28;20475;-84
2022/05/30 14:18:24;;;;;;;58.03;2.30;;;;;;;;;;5077968;28;21008;-82
2022/05/30 14:20:53;;;;;;;58.10;2.30;;;;;;;;;;5076939;28;20902;-84
2022/05/30 14:23:21;;;;;;;58.07;2.20;;;;;;;;;;5078099;28;20844;-83
2022/05/30 14:25:50;;;;;;;58.10;2.10;;;;;;;;;;5074203;28;20534;-83
2022/05/30 14:28:23;;;;;;;58.50;2.33;;;;;;;;;;5075945;28;20516;-83
2022/05/30 14:30:50;;;;;;;57.97;2.40;;;;;;;;;;5078943;28;20821;-84
2022/05/30 14:33:30;;;;;;;57.93;2.07;;;;;;;;;;5078803;28;20435;-83
2022/05/30 14:36:12;;;;;;;59.00;2.40;;;;;;;;;;5078857;28;20473;-84
2022/05/30 14:38:45;;;;;;;58.00;2.07;;;;;;;;;;5077780;28;20446;-82
2022/05/30 14:41:12;;;;;;;58.60;2.60;;;;;;;;;;5080106;28;20459;-81
2022/05/30 14:43:47;;;;;;;57.97;2.10;;;;;;;;;;5075396;28;20440;-82
2022/05/30 14:46:17;;;;;;;59.10;2.10;;;;;;;;;;5078322;28;20839;-81
2022/05/30 14:48:46;;;;;;;57.60;2.10;;;;;;;;;;5080724;28;20446;-81
2022/05/30 14:51:16;;;;;;;59.97;2.23;;;;;;;;;;5081525;28;20432;-82
2022/05/30 14:53:48;;;;;;;57.50;1.90;;;;;;;;;;5075923;28;20427;-84
2022/05/30 14:56:16;;;;;;;57.57;2.00;;;;;;;;;;5074909;28;21070;-82
2022/05/30 14:58:51;;;;;;;57.57;2.10;;;;;;;;;;5077877;28;20460;-82
2022/05/30 15:01:20;;;;;;;57.70;2.07;;;;;;;;;;5078071;28;20462;-82
2022/05/30 15:04:05;;;;;;;58.00;2.23;;;;;;;;;;5078047;28;20546;-82
2022/05/30 15:06:36;;;;;;;57.57;1.90;;;;;;;;;;5077790;28;20939;-83
2022/05/30 15:09:06;;;;;;;57.83;2.07;;;;;;;;;;5074202;28;20818;-84